sensor_id;sensor_type;location;lat;lon;timestamp;P1;durP1;ratioP1;P2;durP2;ratioP2
11711;SDS011;5912;51.034;6.984;2023-12-14T00:00:17;17.90;;;11.57;;
11711;SDS011;5912;51.034;6.984;2023-12-14T00:02:43;17.45;;;11.35;;
11711;SDS011;5912;51.034;6.984;2023-12-14T00:05:08;16.45;;;10.75;;
11711;SDS011;5912;51.034;6.984;2023-12-14T00:07:33;17.83;;;11.80;;
11711;SDS011;5912;51.034;6.984;2023-12-14T00:09:59;19.02;;;11.27;;
11711;SDS011;5912;51.034;6.984;2023-12-14T00:12:24;20.60;;;11.88;;
11711;SDS011;5912;51.034;6.984;2023-12-14T00:14:49;18.92;;;12.52;;
11711;SDS011;5912;51.034;6.984;2023-12-14T00:17:15;17.63;;;11.82;;
11711;SDS011;5912;51.034;6.984;2023-12-14T00:19:40;19.50;;;11.85;;
11711;SDS011;5912;51.034;6.984;2023-12-14T00:22:05;26.13;;;13.18;;
11711;SDS011;5912;51.034;6.984;2023-12-14T00:24:31;19.77;;;12.23;;
11711;SDS011;5912;51.034;6.984;2023-12-14T00:26:56;20.17;;;12.98;;
11711;SDS011;5912;51.034;6.984;2023-12-14T00:29:21;22.65;;;13.40;;
11711;SDS011;5912;51.034;6.984;2023-12-14T00:31:46;20.77;;;13.75;;
11711;SDS011;5912;51.034;6.984;2023-12-14T00:34:12;20.00;;;12.75;;
11711;SDS011;5912;51.034;6.984;2023-12-14T00:36:37;22.65;;;14.13;;
11711;SDS011;5912;51.034;6.984;2023-12-14T00:39:03;27.85;;;14.43;;
11711;SDS011;5912;51.034;6.984;2023-12-14T00:41:29;26.75;;;14.63;;
11711;SDS011;5912;51.034;6.984;2023-12-14T00:43:54;21.80;;;14.32;;
11711;SDS011;5912;51.034;6.984;2023-12-14T00:46:20;22.88;;;14.40;;
11711;SDS011;5912;51.034;6.984;2023-12-14T00:48:45;21.75;;;14.80;;
11711;SDS011;5912;51.034;6.984;2023-12-14T00:51:10;26.70;;;15.55;;
11711;SDS011;5912;51.034;6.984;2023-12-14T00:53:36;22.63;;;14.45;;
11711;SDS011;5912;51.034;6.984;2023-12-14T00:56:01;23.92;;;15.02;;
11711;SDS011;5912;51.034;6.984;2023-12-14T00:58:26;28.98;;;16.95;;
11711;SDS011;5912;51.034;6.984;2023-12-14T01:00:52;26.00;;;15.18;;
11711;SDS011;5912;51.034;6.984;2023-12-14T01:03:19;22.92;;;15.52;;
11711;SDS011;5912;51.034;6.984;2023-12-14T01:05:44;29.42;;;17.38;;
11711;SDS011;5912;51.034;6.984;2023-12-14T01:08:10;28.17;;;16.52;;
11711;SDS011;5912;51.034;6.984;2023-12-14T01:10:35;25.67;;;16.45;;
11711;SDS011;5912;51.034;6.984;2023-12-14T01:13:00;27.20;;;15.50;;
11711;SDS011;5912;51.034;6.984;2023-12-14T01:15:26;30.25;;;16.88;;
11711;SDS011;5912;51.034;6.984;2023-12-14T01:17:51;25.60;;;16.55;;
11711;SDS011;5912;51.034;6.984;2023-12-14T01:20:16;30.27;;;17.40;;
11711;SDS011;5912;51.034;6.984;2023-12-14T01:22:42;25.17;;;16.30;;
11711;SDS011;5912;51.034;6.984;2023-12-14T01:25:07;29.90;;;17.38;;
11711;SDS011;5912;51.034;6.984;2023-12-14T01:27:32;33.00;;;18.08;;
11711;SDS011;5912;51.034;6.984;2023-12-14T01:29:58;31.10;;;18.25;;
11711;SDS011;5912;51.034;6.984;2023-12-14T01:32:23;28.88;;;16.42;;
11711;SDS011;5912;51.034;6.984;2023-12-14T01:34:48;28.85;;;17.45;;
11711;SDS011;5912;51.034;6.984;2023-12-14T01:37:14;28.08;;;16.90;;
11711;SDS011;5912;51.034;6.984;2023-12-14T01:39:39;32.80;;;19.00;;
11711;SDS011;5912;51.034;6.984;2023-12-14T01:42:04;32.67;;;18.48;;
11711;SDS011;5912;51.034;6.984;2023-12-14T01:44:30;34.78;;;19.02;;
11711;SDS011;5912;51.034;6.984;2023-12-14T01:46:55;33.20;;;18.52;;
11711;SDS011;5912;51.034;6.984;2023-12-14T01:49:20;34.70;;;19.40;;
11711;SDS011;5912;51.034;6.984;2023-12-14T01:51:46;32.25;;;18.10;;
11711;SDS011;5912;51.034;6.984;2023-12-14T01:54:11;34.85;;;19.48;;
11711;SDS011;5912;51.034;6.984;2023-12-14T01:56:37;27.48;;;16.90;;
11711;SDS011;5912;51.034;6.984;2023-12-14T01:59:02;34.47;;;19.77;;
11711;SDS011;5912;51.034;6.984;2023-12-14T02:01:28;33.63;;;19.17;;
11711;SDS011;5912;51.034;6.984;2023-12-14T02:04:03;35.97;;;20.00;;
11711;SDS011;5912;51.034;6.984;2023-12-14T02:06:31;36.33;;;19.38;;
11711;SDS011;5912;51.034;6.984;2023-12-14T02:08:56;29.08;;;17.67;;
11711;SDS011;5912;51.034;6.984;2023-12-14T02:11:22;35.03;;;19.33;;
11711;SDS011;5912;51.034;6.984;2023-12-14T02:13:47;31.60;;;18.70;;
11711;SDS011;5912;51.034;6.984;2023-12-14T02:16:12;31.60;;;17.85;;
11711;SDS011;5912;51.034;6.984;2023-12-14T02:18:37;30.98;;;18.67;;
11711;SDS011;5912;51.034;6.984;2023-12-14T02:21:03;31.02;;;17.27;;
11711;SDS011;5912;51.034;6.984;2023-12-14T02:23:28;36.63;;;20.52;;
11711;SDS011;5912;51.034;6.984;2023-12-14T02:25:54;36.30;;;20.00;;
11711;SDS011;5912;51.034;6.984;2023-12-14T02:28:20;40.80;;;20.35;;
11711;SDS011;5912;51.034;6.984;2023-12-14T02:30:45;39.95;;;19.98;;
11711;SDS011;5912;51.034;6.984;2023-12-14T02:33:10;39.35;;;20.45;;
11711;SDS011;5912;51.034;6.984;2023-12-14T02:35:36;37.13;;;19.63;;
11711;SDS011;5912;51.034;6.984;2023-12-14T02:38:01;38.88;;;18.75;;
11711;SDS011;5912;51.034;6.984;2023-12-14T02:40:26;35.97;;;18.75;;
11711;SDS011;5912;51.034;6.984;2023-12-14T02:42:52;33.00;;;17.70;;
11711;SDS011;5912;51.034;6.984;2023-12-14T02:45:17;34.40;;;17.92;;
11711;SDS011;5912;51.034;6.984;2023-12-14T02:47:42;32.60;;;17.13;;
11711;SDS011;5912;51.034;6.984;2023-12-14T02:50:08;31.35;;;17.27;;
11711;SDS011;5912;51.034;6.984;2023-12-14T02:52:33;33.13;;;18.30;;
11711;SDS011;5912;51.034;6.984;2023-12-14T02:54:59;31.38;;;18.63;;
11711;SDS011;5912;51.034;6.984;2023-12-14T02:57:24;31.10;;;16.88;;
11711;SDS011;5912;51.034;6.984;2023-12-14T02:59:49;28.85;;;17.20;;
11711;SDS011;5912;51.034;6.984;2023-12-14T03:02:15;29.60;;;16.75;;
11711;SDS011;5912;51.034;6.984;2023-12-14T03:04:40;28.20;;;16.85;;
11711;SDS011;5912;51.034;6.984;2023-12-14T03:07:05;26.00;;;15.82;;
11711;SDS011;5912;51.034;6.984;2023-12-14T03:09:31;28.75;;;17.30;;
11711;SDS011;5912;51.034;6.984;2023-12-14T03:11:57;29.43;;;15.90;;
11711;SDS011;5912;51.034;6.984;2023-12-14T03:14:24;27.77;;;15.50;;
11711;SDS011;5912;51.034;6.984;2023-12-14T03:16:49;32.08;;;16.55;;
11711;SDS011;5912;51.034;6.984;2023-12-14T03:19:15;24.83;;;15.52;;
11711;SDS011;5912;51.034;6.984;2023-12-14T03:21:41;27.98;;;15.80;;
11711;SDS011;5912;51.034;6.984;2023-12-14T03:24:07;24.88;;;16.10;;
11711;SDS011;5912;51.034;6.984;2023-12-14T03:26:32;26.45;;;16.88;;
11711;SDS011;5912;51.034;6.984;2023-12-14T03:28:57;23.30;;;15.17;;
11711;SDS011;5912;51.034;6.984;2023-12-14T03:31:22;26.17;;;15.63;;
11711;SDS011;5912;51.034;6.984;2023-12-14T03:33:48;22.47;;;15.40;;
11711;SDS011;5912;51.034;6.984;2023-12-14T03:36:13;25.95;;;16.35;;
11711;SDS011;5912;51.034;6.984;2023-12-14T03:38:44;21.60;;;14.80;;
11711;SDS011;5912;51.034;6.984;2023-12-14T03:41:09;24.83;;;15.27;;
11711;SDS011;5912;51.034;6.984;2023-12-14T03:43:35;25.23;;;16.73;;
11711;SDS011;5912;51.034;6.984;2023-12-14T03:46:00;23.53;;;15.37;;
11711;SDS011;5912;51.034;6.984;2023-12-14T03:48:25;22.27;;;14.83;;
11711;SDS011;5912;51.034;6.984;2023-12-14T03:50:51;24.20;;;15.83;;
11711;SDS011;5912;51.034;6.984;2023-12-14T03:53:16;20.77;;;12.67;;
11711;SDS011;5912;51.034;6.984;2023-12-14T03:55:41;17.97;;;12.37;;
11711;SDS011;5912;51.034;6.984;2023-12-14T03:58:07;20.52;;;12.20;;
11711;SDS011;5912;51.034;6.984;2023-12-14T04:00:32;17.47;;;12.53;;
11711;SDS011;5912;51.034;6.984;2023-12-14T04:02:57;16.97;;;12.73;;
11711;SDS011;5912;51.034;6.984;2023-12-14T04:05:23;15.52;;;12.07;;
11711;SDS011;5912;51.034;6.984;2023-12-14T04:07:48;16.27;;;12.23;;
11711;SDS011;5912;51.034;6.984;2023-12-14T04:10:14;16.30;;;11.83;;
11711;SDS011;5912;51.034;6.984;2023-12-14T04:12:39;15.23;;;11.30;;
11711;SDS011;5912;51.034;6.984;2023-12-14T04:15:05;17.47;;;13.27;;
11711;SDS011;5912;51.034;6.984;2023-12-14T04:17:32;15.70;;;12.20;;
11711;SDS011;5912;51.034;6.984;2023-12-14T04:19:58;18.67;;;12.77;;
11711;SDS011;5912;51.034;6.984;2023-12-14T04:22:24;17.90;;;13.45;;
11711;SDS011;5912;51.034;6.984;2023-12-14T04:24:50;18.23;;;13.63;;
11711;SDS011;5912;51.034;6.984;2023-12-14T04:27:15;19.33;;;12.97;;
11711;SDS011;5912;51.034;6.984;2023-12-14T04:29:41;20.52;;;14.15;;
11711;SDS011;5912;51.034;6.984;2023-12-14T04:32:06;22.13;;;14.00;;
11711;SDS011;5912;51.034;6.984;2023-12-14T04:34:31;21.93;;;13.93;;
11711;SDS011;5912;51.034;6.984;2023-12-14T04:36:57;21.63;;;13.90;;
11711;SDS011;5912;51.034;6.984;2023-12-14T04:39:25;23.03;;;14.17;;
11711;SDS011;5912;51.034;6.984;2023-12-14T04:41:51;21.73;;;13.57;;
11711;SDS011;5912;51.034;6.984;2023-12-14T04:44:20;25.37;;;15.80;;
11711;SDS011;5912;51.034;6.984;2023-12-14T04:46:48;24.27;;;15.07;;
11711;SDS011;5912;51.034;6.984;2023-12-14T04:49:14;27.80;;;16.67;;
11711;SDS011;5912;51.034;6.984;2023-12-14T04:51:39;30.70;;;17.37;;
11711;SDS011;5912;51.034;6.984;2023-12-14T04:54:04;28.03;;;17.17;;
11711;SDS011;5912;51.034;6.984;2023-12-14T04:56:30;30.33;;;18.30;;
11711;SDS011;5912;51.034;6.984;2023-12-14T04:58:55;29.33;;;17.43;;
11711;SDS011;5912;51.034;6.984;2023-12-14T05:01:21;29.10;;;17.50;;
11711;SDS011;5912;51.034;6.984;2023-12-14T05:03:46;31.30;;;18.70;;
11711;SDS011;5912;51.034;6.984;2023-12-14T05:06:12;32.60;;;19.03;;
11711;SDS011;5912;51.034;6.984;2023-12-14T05:08:37;32.97;;;19.03;;
11711;SDS011;5912;51.034;6.984;2023-12-14T05:11:02;31.53;;;17.90;;
11711;SDS011;5912;51.034;6.984;2023-12-14T05:13:28;27.83;;;17.23;;
11711;SDS011;5912;51.034;6.984;2023-12-14T05:15:53;28.93;;;17.60;;
11711;SDS011;5912;51.034;6.984;2023-12-14T05:18:19;32.33;;;17.90;;
11711;SDS011;5912;51.034;6.984;2023-12-14T05:20:44;31.63;;;17.80;;
11711;SDS011;5912;51.034;6.984;2023-12-14T05:23:10;27.27;;;17.20;;
11711;SDS011;5912;51.034;6.984;2023-12-14T05:25:36;33.10;;;19.33;;
11711;SDS011;5912;51.034;6.984;2023-12-14T05:28:01;32.63;;;19.10;;
11711;SDS011;5912;51.034;6.984;2023-12-14T05:30:27;32.50;;;18.13;;
11711;SDS011;5912;51.034;6.984;2023-12-14T05:32:52;29.97;;;17.60;;
11711;SDS011;5912;51.034;6.984;2023-12-14T05:35:17;31.67;;;18.67;;
11711;SDS011;5912;51.034;6.984;2023-12-14T05:37:43;33.53;;;19.33;;
11711;SDS011;5912;51.034;6.984;2023-12-14T05:40:09;29.27;;;17.37;;
11711;SDS011;5912;51.034;6.984;2023-12-14T05:42:35;34.57;;;19.00;;
11711;SDS011;5912;51.034;6.984;2023-12-14T05:45:00;33.30;;;17.43;;
11711;SDS011;5912;51.034;6.984;2023-12-14T05:47:26;33.47;;;19.03;;
11711;SDS011;5912;51.034;6.984;2023-12-14T05:49:51;31.37;;;18.63;;
11711;SDS011;5912;51.034;6.984;2023-12-14T05:52:17;35.27;;;20.27;;
11711;SDS011;5912;51.034;6.984;2023-12-14T05:54:42;39.30;;;19.77;;
11711;SDS011;5912;51.034;6.984;2023-12-14T05:57:08;36.33;;;20.30;;
11711;SDS011;5912;51.034;6.984;2023-12-14T05:59:33;35.97;;;19.60;;
11711;SDS011;5912;51.034;6.984;2023-12-14T06:01:59;35.93;;;20.70;;
11711;SDS011;5912;51.034;6.984;2023-12-14T06:04:25;41.70;;;20.03;;
11711;SDS011;5912;51.034;6.984;2023-12-14T06:06:52;39.27;;;20.60;;
11711;SDS011;5912;51.034;6.984;2023-12-14T06:09:18;38.47;;;20.00;;
11711;SDS011;5912;51.034;6.984;2023-12-14T06:11:46;36.43;;;19.50;;
11711;SDS011;5912;51.034;6.984;2023-12-14T06:14:15;35.63;;;18.47;;
11711;SDS011;5912;51.034;6.984;2023-12-14T06:16:41;37.10;;;19.07;;
11711;SDS011;5912;51.034;6.984;2023-12-14T06:19:06;34.83;;;18.27;;
11711;SDS011;5912;51.034;6.984;2023-12-14T06:21:31;33.53;;;17.50;;
11711;SDS011;5912;51.034;6.984;2023-12-14T06:23:57;31.23;;;17.07;;
11711;SDS011;5912;51.034;6.984;2023-12-14T06:26:24;30.27;;;17.10;;
11711;SDS011;5912;51.034;6.984;2023-12-14T06:28:49;31.07;;;18.13;;
11711;SDS011;5912;51.034;6.984;2023-12-14T06:31:14;29.20;;;17.13;;
11711;SDS011;5912;51.034;6.984;2023-12-14T06:33:41;28.53;;;16.63;;
11711;SDS011;5912;51.034;6.984;2023-12-14T06:36:07;27.53;;;15.97;;
11711;SDS011;5912;51.034;6.984;2023-12-14T06:38:33;24.80;;;14.83;;
11711;SDS011;5912;51.034;6.984;2023-12-14T06:40:58;28.83;;;15.70;;
11711;SDS011;5912;51.034;6.984;2023-12-14T06:43:24;27.37;;;15.80;;
11711;SDS011;5912;51.034;6.984;2023-12-14T06:45:49;22.37;;;14.13;;
11711;SDS011;5912;51.034;6.984;2023-12-14T06:48:14;26.13;;;14.83;;
11711;SDS011;5912;51.034;6.984;2023-12-14T06:50:40;21.43;;;13.53;;
11711;SDS011;5912;51.034;6.984;2023-12-14T06:53:06;22.67;;;14.00;;
11711;SDS011;5912;51.034;6.984;2023-12-14T06:55:31;20.83;;;13.53;;
11711;SDS011;5912;51.034;6.984;2023-12-14T06:57:56;22.90;;;13.70;;
11711;SDS011;5912;51.034;6.984;2023-12-14T07:00:21;19.97;;;12.70;;
11711;SDS011;5912;51.034;6.984;2023-12-14T07:02:47;23.97;;;13.77;;
11711;SDS011;5912;51.034;6.984;2023-12-14T07:05:12;18.27;;;12.20;;
11711;SDS011;5912;51.034;6.984;2023-12-14T07:07:38;20.47;;;12.57;;
11711;SDS011;5912;51.034;6.984;2023-12-14T07:10:03;19.23;;;12.87;;
11711;SDS011;5912;51.034;6.984;2023-12-14T07:12:29;20.23;;;12.37;;
11711;SDS011;5912;51.034;6.984;2023-12-14T07:14:54;18.93;;;12.17;;
11711;SDS011;5912;51.034;6.984;2023-12-14T07:17:19;18.87;;;12.10;;
11711;SDS011;5912;51.034;6.984;2023-12-14T07:19:45;20.63;;;12.43;;
11711;SDS011;5912;51.034;6.984;2023-12-14T07:22:10;17.63;;;12.07;;
11711;SDS011;5912;51.034;6.984;2023-12-14T07:24:35;22.37;;;12.77;;
11711;SDS011;5912;51.034;6.984;2023-12-14T07:27:00;18.53;;;11.67;;
11711;SDS011;5912;51.034;6.984;2023-12-14T07:29:26;20.93;;;11.93;;
11711;SDS011;5912;51.034;6.984;2023-12-14T07:31:52;24.40;;;13.23;;
11711;SDS011;5912;51.034;6.984;2023-12-14T07:34:17;19.73;;;12.00;;
11711;SDS011;5912;51.034;6.984;2023-12-14T07:36:43;20.97;;;12.00;;
11711;SDS011;5912;51.034;6.984;2023-12-14T07:39:08;20.80;;;11.73;;
11711;SDS011;5912;51.034;6.984;2023-12-14T07:41:34;19.13;;;11.87;;
11711;SDS011;5912;51.034;6.984;2023-12-14T07:44:00;20.80;;;12.10;;
11711;SDS011;5912;51.034;6.984;2023-12-14T07:46:26;19.57;;;12.13;;
11711;SDS011;5912;51.034;6.984;2023-12-14T07:48:51;23.87;;;13.10;;
11711;SDS011;5912;51.034;6.984;2023-12-14T07:51:16;21.07;;;12.17;;
11711;SDS011;5912;51.034;6.984;2023-12-14T07:53:42;25.50;;;14.37;;
11711;SDS011;5912;51.034;6.984;2023-12-14T07:56:07;30.13;;;15.90;;
11711;SDS011;5912;51.034;6.984;2023-12-14T07:58:33;26.43;;;15.27;;
11711;SDS011;5912;51.034;6.984;2023-12-14T08:00:58;31.40;;;16.77;;
11711;SDS011;5912;51.034;6.984;2023-12-14T08:03:24;29.33;;;16.10;;
11711;SDS011;5912;51.034;6.984;2023-12-14T08:05:49;29.87;;;16.13;;
11711;SDS011;5912;51.034;6.984;2023-12-14T08:08:14;31.70;;;16.73;;
11711;SDS011;5912;51.034;6.984;2023-12-14T08:10:40;29.47;;;16.10;;
11711;SDS011;5912;51.034;6.984;2023-12-14T08:13:05;31.03;;;17.67;;
11711;SDS011;5912;51.034;6.984;2023-12-14T08:15:30;33.50;;;18.13;;
11711;SDS011;5912;51.034;6.984;2023-12-14T08:17:56;33.83;;;18.10;;
11711;SDS011;5912;51.034;6.984;2023-12-14T08:20:21;29.23;;;17.17;;
11711;SDS011;5912;51.034;6.984;2023-12-14T08:22:47;29.20;;;17.50;;
11711;SDS011;5912;51.034;6.984;2023-12-14T08:25:12;27.77;;;16.23;;
11711;SDS011;5912;51.034;6.984;2023-12-14T08:27:42;29.00;;;16.37;;
11711;SDS011;5912;51.034;6.984;2023-12-14T08:30:09;27.43;;;16.40;;
11711;SDS011;5912;51.034;6.984;2023-12-14T08:32:35;29.90;;;17.00;;
11711;SDS011;5912;51.034;6.984;2023-12-14T08:35:00;30.43;;;17.87;;
11711;SDS011;5912;51.034;6.984;2023-12-14T08:37:26;34.40;;;18.80;;
11711;SDS011;5912;51.034;6.984;2023-12-14T08:39:51;42.00;;;20.73;;
11711;SDS011;5912;51.034;6.984;2023-12-14T08:42:17;37.77;;;20.10;;
11711;SDS011;5912;51.034;6.984;2023-12-14T08:44:42;42.23;;;20.80;;
11711;SDS011;5912;51.034;6.984;2023-12-14T08:47:08;36.30;;;19.43;;
11711;SDS011;5912;51.034;6.984;2023-12-14T08:49:34;37.77;;;18.67;;
11711;SDS011;5912;51.034;6.984;2023-12-14T08:52:00;33.20;;;17.73;;
11711;SDS011;5912;51.034;6.984;2023-12-14T08:54:26;33.83;;;17.80;;
11711;SDS011;5912;51.034;6.984;2023-12-14T08:56:51;31.57;;;16.20;;
11711;SDS011;5912;51.034;6.984;2023-12-14T08:59:17;30.10;;;15.73;;
11711;SDS011;5912;51.034;6.984;2023-12-14T09:01:44;32.87;;;15.43;;
11711;SDS011;5912;51.034;6.984;2023-12-14T09:04:09;32.23;;;16.30;;
11711;SDS011;5912;51.034;6.984;2023-12-14T09:06:35;31.83;;;16.50;;
11711;SDS011;5912;51.034;6.984;2023-12-14T09:09:00;28.67;;;15.97;;
11711;SDS011;5912;51.034;6.984;2023-12-14T09:11:25;32.80;;;16.93;;
11711;SDS011;5912;51.034;6.984;2023-12-14T09:13:50;31.23;;;16.40;;
11711;SDS011;5912;51.034;6.984;2023-12-14T09:16:16;32.73;;;16.53;;
11711;SDS011;5912;51.034;6.984;2023-12-14T09:18:41;31.67;;;15.97;;
11711;SDS011;5912;51.034;6.984;2023-12-14T09:21:07;32.03;;;17.33;;
11711;SDS011;5912;51.034;6.984;2023-12-14T09:23:32;31.23;;;16.87;;
11711;SDS011;5912;51.034;6.984;2023-12-14T09:25:58;35.13;;;18.43;;
11711;SDS011;5912;51.034;6.984;2023-12-14T09:28:24;37.30;;;19.13;;
11711;SDS011;5912;51.034;6.984;2023-12-14T09:30:49;35.20;;;17.97;;
11711;SDS011;5912;51.034;6.984;2023-12-14T09:33:15;37.00;;;19.43;;
11711;SDS011;5912;51.034;6.984;2023-12-14T09:35:40;37.20;;;18.40;;
11711;SDS011;5912;51.034;6.984;2023-12-14T09:38:06;34.97;;;19.07;;
11711;SDS011;5912;51.034;6.984;2023-12-14T09:40:32;36.30;;;19.40;;
11711;SDS011;5912;51.034;6.984;2023-12-14T09:42:58;34.37;;;18.80;;
11711;SDS011;5912;51.034;6.984;2023-12-14T09:45:24;34.03;;;18.60;;
11711;SDS011;5912;51.034;6.984;2023-12-14T09:47:58;33.30;;;19.40;;
11711;SDS011;5912;51.034;6.984;2023-12-14T09:50:25;35.50;;;19.73;;
11711;SDS011;5912;51.034;6.984;2023-12-14T09:52:51;31.77;;;17.97;;
11711;SDS011;5912;51.034;6.984;2023-12-14T09:55:16;30.43;;;19.07;;
11711;SDS011;5912;51.034;6.984;2023-12-14T09:57:42;33.10;;;18.87;;
11711;SDS011;5912;51.034;6.984;2023-12-14T10:00:08;33.73;;;18.00;;
11711;SDS011;5912;51.034;6.984;2023-12-14T10:02:36;43.50;;;20.77;;
11711;SDS011;5912;51.034;6.984;2023-12-14T10:05:02;37.77;;;20.50;;
11711;SDS011;5912;51.034;6.984;2023-12-14T10:07:28;37.83;;;20.67;;
11711;SDS011;5912;51.034;6.984;2023-12-14T10:09:55;42.00;;;21.40;;
11711;SDS011;5912;51.034;6.984;2023-12-14T10:12:36;36.87;;;20.57;;
11711;SDS011;5912;51.034;6.984;2023-12-14T10:15:15;37.87;;;20.83;;
11711;SDS011;5912;51.034;6.984;2023-12-14T10:17:40;40.60;;;21.17;;
11711;SDS011;5912;51.034;6.984;2023-12-14T10:20:06;37.93;;;21.80;;
11711;SDS011;5912;51.034;6.984;2023-12-14T10:22:34;41.50;;;22.30;;
11711;SDS011;5912;51.034;6.984;2023-12-14T10:25:02;38.60;;;21.17;;
11711;SDS011;5912;51.034;6.984;2023-12-14T10:27:28;37.20;;;21.27;;
11711;SDS011;5912;51.034;6.984;2023-12-14T10:29:56;45.40;;;25.10;;
11711;SDS011;5912;51.034;6.984;2023-12-14T10:32:21;44.13;;;25.20;;
11711;SDS011;5912;51.034;6.984;2023-12-14T10:34:48;47.63;;;25.57;;
11711;SDS011;5912;51.034;6.984;2023-12-14T10:37:13;52.77;;;27.13;;
11711;SDS011;5912;51.034;6.984;2023-12-14T10:39:40;45.77;;;25.57;;
11711;SDS011;5912;51.034;6.984;2023-12-14T10:42:08;48.40;;;26.00;;
11711;SDS011;5912;51.034;6.984;2023-12-14T10:44:35;46.73;;;26.40;;
11711;SDS011;5912;51.034;6.984;2023-12-14T10:47:01;49.37;;;26.50;;
11711;SDS011;5912;51.034;6.984;2023-12-14T10:49:29;48.13;;;26.10;;
11711;SDS011;5912;51.034;6.984;2023-12-14T10:51:55;51.13;;;27.17;;
11711;SDS011;5912;51.034;6.984;2023-12-14T10:54:23;50.83;;;27.27;;
11711;SDS011;5912;51.034;6.984;2023-12-14T10:56:49;46.47;;;24.73;;
11711;SDS011;5912;51.034;6.984;2023-12-14T10:59:19;45.00;;;24.57;;
11711;SDS011;5912;51.034;6.984;2023-12-14T11:01:44;39.60;;;23.20;;
11711;SDS011;5912;51.034;6.984;2023-12-14T11:04:10;45.43;;;24.27;;
11711;SDS011;5912;51.034;6.984;2023-12-14T11:06:38;40.23;;;23.40;;
11711;SDS011;5912;51.034;6.984;2023-12-14T11:09:05;40.97;;;23.40;;
11711;SDS011;5912;51.034;6.984;2023-12-14T11:11:41;39.67;;;22.87;;
11711;SDS011;5912;51.034;6.984;2023-12-14T11:14:13;35.87;;;20.80;;
11711;SDS011;5912;51.034;6.984;2023-12-14T11:16:38;36.40;;;20.47;;
11711;SDS011;5912;51.034;6.984;2023-12-14T11:19:23;33.20;;;20.23;;
11711;SDS011;5912;51.034;6.984;2023-12-14T11:24:18;32.37;;;18.83;;
11711;SDS011;5912;51.034;6.984;2023-12-14T11:26:43;35.77;;;21.47;;
11711;SDS011;5912;51.034;6.984;2023-12-14T11:29:09;38.13;;;20.73;;
11711;SDS011;5912;51.034;6.984;2023-12-14T11:31:34;29.80;;;20.23;;
11711;SDS011;5912;51.034;6.984;2023-12-14T11:34:00;33.77;;;20.73;;
11711;SDS011;5912;51.034;6.984;2023-12-14T11:36:28;31.97;;;20.23;;
11711;SDS011;5912;51.034;6.984;2023-12-14T11:38:54;34.83;;;20.83;;
11711;SDS011;5912;51.034;6.984;2023-12-14T11:41:20;33.80;;;20.83;;
11711;SDS011;5912;51.034;6.984;2023-12-14T11:43:46;36.47;;;21.37;;
11711;SDS011;5912;51.034;6.984;2023-12-14T11:46:11;35.80;;;21.70;;
11711;SDS011;5912;51.034;6.984;2023-12-14T11:48:37;34.53;;;20.83;;
11711;SDS011;5912;51.034;6.984;2023-12-14T11:51:03;39.50;;;22.60;;
11711;SDS011;5912;51.034;6.984;2023-12-14T11:53:29;36.00;;;21.90;;
11711;SDS011;5912;51.034;6.984;2023-12-14T11:55:55;33.83;;;21.07;;
11711;SDS011;5912;51.034;6.984;2023-12-14T11:58:20;36.83;;;20.90;;
11711;SDS011;5912;51.034;6.984;2023-12-14T12:00:45;32.03;;;19.97;;
11711;SDS011;5912;51.034;6.984;2023-12-14T12:03:13;33.27;;;19.77;;
11711;SDS011;5912;51.034;6.984;2023-12-14T12:05:43;30.87;;;19.57;;
11711;SDS011;5912;51.034;6.984;2023-12-14T12:08:11;32.03;;;19.43;;
11711;SDS011;5912;51.034;6.984;2023-12-14T12:10:37;30.27;;;19.27;;
11711;SDS011;5912;51.034;6.984;2023-12-14T12:13:21;31.07;;;19.50;;
11711;SDS011;5912;51.034;6.984;2023-12-14T12:15:47;31.03;;;19.13;;
11711;SDS011;5912;51.034;6.984;2023-12-14T12:18:13;30.37;;;18.83;;
11711;SDS011;5912;51.034;6.984;2023-12-14T12:20:44;29.83;;;19.03;;
11711;SDS011;5912;51.034;6.984;2023-12-14T12:23:09;30.07;;;18.33;;
11711;SDS011;5912;51.034;6.984;2023-12-14T12:25:35;29.40;;;17.70;;
11711;SDS011;5912;51.034;6.984;2023-12-14T12:28:00;27.83;;;18.37;;
11711;SDS011;5912;51.034;6.984;2023-12-14T12:30:27;28.43;;;17.93;;
11711;SDS011;5912;51.034;6.984;2023-12-14T12:32:53;26.63;;;16.67;;
11711;SDS011;5912;51.034;6.984;2023-12-14T12:35:20;29.20;;;17.20;;
11711;SDS011;5912;51.034;6.984;2023-12-14T12:37:47;25.57;;;16.23;;
11711;SDS011;5912;51.034;6.984;2023-12-14T12:40:18;24.50;;;16.10;;
11711;SDS011;5912;51.034;6.984;2023-12-14T12:42:44;23.63;;;15.07;;
11711;SDS011;5912;51.034;6.984;2023-12-14T12:45:10;26.03;;;16.53;;
11711;SDS011;5912;51.034;6.984;2023-12-14T12:47:35;25.33;;;15.37;;
11711;SDS011;5912;51.034;6.984;2023-12-14T12:50:01;24.03;;;15.53;;
11711;SDS011;5912;51.034;6.984;2023-12-14T12:52:26;25.00;;;15.57;;
11711;SDS011;5912;51.034;6.984;2023-12-14T12:54:51;22.47;;;14.67;;
11711;SDS011;5912;51.034;6.984;2023-12-14T12:57:17;23.60;;;14.57;;
11711;SDS011;5912;51.034;6.984;2023-12-14T12:59:42;18.20;;;12.90;;
11711;SDS011;5912;51.034;6.984;2023-12-14T13:02:08;19.30;;;12.93;;
11711;SDS011;5912;51.034;6.984;2023-12-14T13:04:33;19.70;;;13.03;;
11711;SDS011;5912;51.034;6.984;2023-12-14T13:06:58;19.40;;;12.97;;
11711;SDS011;5912;51.034;6.984;2023-12-14T13:09:27;19.83;;;13.33;;
11711;SDS011;5912;51.034;6.984;2023-12-14T13:11:52;15.90;;;11.73;;
11711;SDS011;5912;51.034;6.984;2023-12-14T13:14:17;16.97;;;11.37;;
11711;SDS011;5912;51.034;6.984;2023-12-14T13:16:43;17.53;;;11.03;;
11711;SDS011;5912;51.034;6.984;2023-12-14T13:19:08;17.37;;;10.57;;
11711;SDS011;5912;51.034;6.984;2023-12-14T13:21:34;12.10;;;9.00;;
11711;SDS011;5912;51.034;6.984;2023-12-14T13:24:00;12.83;;;9.70;;
11711;SDS011;5912;51.034;6.984;2023-12-14T13:26:26;12.17;;;9.13;;
11711;SDS011;5912;51.034;6.984;2023-12-14T13:28:51;12.40;;;8.70;;
11711;SDS011;5912;51.034;6.984;2023-12-14T13:31:17;11.73;;;8.33;;
11711;SDS011;5912;51.034;6.984;2023-12-14T13:33:42;11.43;;;8.93;;
11711;SDS011;5912;51.034;6.984;2023-12-14T13:36:08;10.13;;;7.90;;
11711;SDS011;5912;51.034;6.984;2023-12-14T13:38:34;11.83;;;7.97;;
11711;SDS011;5912;51.034;6.984;2023-12-14T13:41:01;11.23;;;8.17;;
11711;SDS011;5912;51.034;6.984;2023-12-14T13:43:27;10.70;;;7.97;;
11711;SDS011;5912;51.034;6.984;2023-12-14T13:45:53;11.17;;;7.60;;
11711;SDS011;5912;51.034;6.984;2023-12-14T13:48:22;9.67;;;7.23;;
11711;SDS011;5912;51.034;6.984;2023-12-14T13:50:48;12.60;;;8.03;;
11711;SDS011;5912;51.034;6.984;2023-12-14T13:53:13;10.50;;;7.37;;
11711;SDS011;5912;51.034;6.984;2023-12-14T13:55:38;10.13;;;7.60;;
11711;SDS011;5912;51.034;6.984;2023-12-14T13:58:04;9.67;;;6.93;;
11711;SDS011;5912;51.034;6.984;2023-12-14T14:00:29;9.27;;;7.17;;
11711;SDS011;5912;51.034;6.984;2023-12-14T14:02:55;10.50;;;7.70;;
11711;SDS011;5912;51.034;6.984;2023-12-14T14:05:21;10.50;;;7.40;;
11711;SDS011;5912;51.034;6.984;2023-12-14T14:07:47;10.83;;;7.27;;
11711;SDS011;5912;51.034;6.984;2023-12-14T14:10:13;8.57;;;6.53;;
11711;SDS011;5912;51.034;6.984;2023-12-14T14:12:39;11.33;;;7.37;;
11711;SDS011;5912;51.034;6.984;2023-12-14T14:15:05;9.70;;;6.67;;
11711;SDS011;5912;51.034;6.984;2023-12-14T14:17:31;10.10;;;6.97;;
11711;SDS011;5912;51.034;6.984;2023-12-14T14:19:56;10.60;;;7.07;;
11711;SDS011;5912;51.034;6.984;2023-12-14T14:22:21;10.10;;;7.03;;
11711;SDS011;5912;51.034;6.984;2023-12-14T14:24:47;9.07;;;6.70;;
11711;SDS011;5912;51.034;6.984;2023-12-14T14:27:12;10.33;;;7.53;;
11711;SDS011;5912;51.034;6.984;2023-12-14T14:29:37;9.33;;;6.77;;